sensor_id;sensor_type;location;lat;lon;timestamp;P1;durP1;ratioP1;P2;durP2;ratioP2
28756;SDS011;44294;48.282;14.282;2022-12-18T00:02:14;86.80;;;37.60;;
28756;SDS011;44294;48.282;14.282;2022-12-18T00:05:01;82.33;;;35.10;;
28756;SDS011;44294;48.282;14.282;2022-12-18T00:07:48;77.50;;;33.37;;
28756;SDS011;44294;48.282;14.282;2022-12-18T00:10:36;82.37;;;34.60;;
28756;SDS011;44294;48.282;14.282;2022-12-18T00:13:23;88.80;;;37.97;;
28756;SDS011;44294;48.282;14.282;2022-12-18T00:16:11;90.30;;;36.67;;
28756;SDS011;44294;48.282;14.282;2022-12-18T00:18:59;79.50;;;34.43;;
28756;SDS011;44294;48.282;14.282;2022-12-18T00:21:47;87.37;;;36.77;;
28756;SDS011;44294;48.282;14.282;2022-12-18T00:24:34;97.27;;;40.60;;
28756;SDS011;44294;48.282;14.282;2022-12-18T00:27:21;86.93;;;36.80;;
28756;SDS011;44294;48.282;14.282;2022-12-18T00:30:09;94.07;;;40.10;;
28756;SDS011;44294;48.282;14.282;2022-12-18T00:32:57;95.70;;;37.90;;
28756;SDS011;44294;48.282;14.282;2022-12-18T00:35:44;93.33;;;39.17;;
28756;SDS011;44294;48.282;14.282;2022-12-18T00:38:32;92.27;;;38.67;;
28756;SDS011;44294;48.282;14.282;2022-12-18T00:41:19;87.63;;;36.27;;
28756;SDS011;44294;48.282;14.282;2022-12-18T00:44:25;83.40;;;36.17;;
28756;SDS011;44294;48.282;14.282;2022-12-18T00:47:12;89.90;;;36.70;;
28756;SDS011;44294;48.282;14.282;2022-12-18T00:49:59;81.50;;;34.43;;
28756;SDS011;44294;48.282;14.282;2022-12-18T00:52:47;83.20;;;35.07;;
28756;SDS011;44294;48.282;14.282;2022-12-18T00:55:34;86.03;;;35.57;;
28756;SDS011;44294;48.282;14.282;2022-12-18T00:58:21;88.10;;;34.90;;
28756;SDS011;44294;48.282;14.282;2022-12-18T01:01:09;89.00;;;35.53;;
28756;SDS011;44294;48.282;14.282;2022-12-18T01:03:56;128.40;;;43.03;;
28756;SDS011;44294;48.282;14.282;2022-12-18T01:06:43;124.43;;;42.20;;
28756;SDS011;44294;48.282;14.282;2022-12-18T01:09:31;108.77;;;41.97;;
28756;SDS011;44294;48.282;14.282;2022-12-18T01:12:18;129.57;;;43.10;;
28756;SDS011;44294;48.282;14.282;2022-12-18T01:15:06;123.83;;;40.53;;
28756;SDS011;44294;48.282;14.282;2022-12-18T01:17:53;137.40;;;44.77;;
28756;SDS011;44294;48.282;14.282;2022-12-18T01:20:41;128.53;;;41.07;;
28756;SDS011;44294;48.282;14.282;2022-12-18T01:23:28;104.50;;;38.03;;
28756;SDS011;44294;48.282;14.282;2022-12-18T01:26:15;97.93;;;37.73;;
28756;SDS011;44294;48.282;14.282;2022-12-18T01:29:03;95.10;;;37.57;;
28756;SDS011;44294;48.282;14.282;2022-12-18T01:31:50;96.97;;;37.37;;
28756;SDS011;44294;48.282;14.282;2022-12-18T01:34:38;102.57;;;38.27;;
28756;SDS011;44294;48.282;14.282;2022-12-18T01:37:25;103.23;;;38.87;;
28756;SDS011;44294;48.282;14.282;2022-12-18T01:40:12;103.23;;;38.00;;
28756;SDS011;44294;48.282;14.282;2022-12-18T01:42:59;98.93;;;37.50;;
28756;SDS011;44294;48.282;14.282;2022-12-18T01:45:47;110.73;;;40.07;;
28756;SDS011;44294;48.282;14.282;2022-12-18T01:48:34;98.97;;;37.57;;
28756;SDS011;44294;48.282;14.282;2022-12-18T01:51:22;102.33;;;37.53;;
28756;SDS011;44294;48.282;14.282;2022-12-18T01:54:10;123.77;;;42.70;;
28756;SDS011;44294;48.282;14.282;2022-12-18T01:56:57;102.90;;;39.77;;
28756;SDS011;44294;48.282;14.282;2022-12-18T01:59:45;108.40;;;38.97;;
28756;SDS011;44294;48.282;14.282;2022-12-18T02:02:33;109.17;;;39.37;;
28756;SDS011;44294;48.282;14.282;2022-12-18T02:05:35;104.77;;;38.17;;
28756;SDS011;44294;48.282;14.282;2022-12-18T02:08:23;94.70;;;36.30;;
28756;SDS011;44294;48.282;14.282;2022-12-18T02:11:12;109.17;;;37.37;;
28756;SDS011;44294;48.282;14.282;2022-12-18T02:14:05;107.40;;;38.50;;
28756;SDS011;44294;48.282;14.282;2022-12-18T02:16:59;102.30;;;37.77;;
28756;SDS011;44294;48.282;14.282;2022-12-18T02:20:01;112.27;;;38.37;;
28756;SDS011;44294;48.282;14.282;2022-12-18T02:23:10;107.77;;;38.00;;
28756;SDS011;44294;48.282;14.282;2022-12-18T02:28:45;103.23;;;36.10;;
28756;SDS011;44294;48.282;14.282;2022-12-18T02:31:30;102.90;;;38.63;;
28756;SDS011;44294;48.282;14.282;2022-12-18T02:34:18;120.37;;;43.40;;
28756;SDS011;44294;48.282;14.282;2022-12-18T02:37:07;124.20;;;43.30;;
28756;SDS011;44294;48.282;14.282;2022-12-18T02:39:55;127.97;;;44.10;;
28756;SDS011;44294;48.282;14.282;2022-12-18T02:42:43;122.37;;;43.90;;
28756;SDS011;44294;48.282;14.282;2022-12-18T02:45:31;129.33;;;44.23;;
28756;SDS011;44294;48.282;14.282;2022-12-18T02:48:19;126.77;;;45.13;;
28756;SDS011;44294;48.282;14.282;2022-12-18T02:51:14;118.03;;;44.77;;
28756;SDS011;44294;48.282;14.282;2022-12-18T02:53:58;127.30;;;45.63;;
28756;SDS011;44294;48.282;14.282;2022-12-18T02:56:46;136.40;;;44.63;;
28756;SDS011;44294;48.282;14.282;2022-12-18T02:59:36;128.10;;;46.00;;
28756;SDS011;44294;48.282;14.282;2022-12-18T03:02:25;115.63;;;41.13;;
28756;SDS011;44294;48.282;14.282;2022-12-18T03:05:20;111.80;;;39.97;;
28756;SDS011;44294;48.282;14.282;2022-12-18T03:08:08;113.43;;;39.83;;
28756;SDS011;44294;48.282;14.282;2022-12-18T03:11:05;107.67;;;38.73;;
28756;SDS011;44294;48.282;14.282;2022-12-18T03:13:49;103.93;;;37.57;;
28756;SDS011;44294;48.282;14.282;2022-12-18T03:16:37;93.03;;;33.97;;
28756;SDS011;44294;48.282;14.282;2022-12-18T03:19:25;92.43;;;33.67;;
28756;SDS011;44294;48.282;14.282;2022-12-18T03:22:13;82.50;;;28.70;;
28756;SDS011;44294;48.282;14.282;2022-12-18T03:25:02;87.83;;;30.57;;
28756;SDS011;44294;48.282;14.282;2022-12-18T03:27:51;86.17;;;30.90;;
28756;SDS011;44294;48.282;14.282;2022-12-18T03:30:40;79.80;;;29.67;;
28756;SDS011;44294;48.282;14.282;2022-12-18T03:33:32;63.20;;;25.10;;
28756;SDS011;44294;48.282;14.282;2022-12-18T03:36:19;55.67;;;21.97;;
28756;SDS011;44294;48.282;14.282;2022-12-18T03:39:07;50.33;;;20.17;;
28756;SDS011;44294;48.282;14.282;2022-12-18T03:42:07;46.13;;;18.67;;
28756;SDS011;44294;48.282;14.282;2022-12-18T03:44:57;45.73;;;18.40;;
28756;SDS011;44294;48.282;14.282;2022-12-18T03:47:56;44.37;;;18.80;;
28756;SDS011;44294;48.282;14.282;2022-12-18T03:51:01;41.70;;;17.50;;
28756;SDS011;44294;48.282;14.282;2022-12-18T03:53:33;37.00;;;17.07;;
28756;SDS011;44294;48.282;14.282;2022-12-18T03:56:20;43.43;;;16.73;;
28756;SDS011;44294;48.282;14.282;2022-12-18T03:59:08;43.20;;;17.73;;
28756;SDS011;44294;48.282;14.282;2022-12-18T04:01:57;44.53;;;18.23;;
28756;SDS011;44294;48.282;14.282;2022-12-18T04:04:45;49.97;;;19.53;;
28756;SDS011;44294;48.282;14.282;2022-12-18T04:07:33;42.80;;;17.90;;
28756;SDS011;44294;48.282;14.282;2022-12-18T04:10:21;48.87;;;19.57;;
28756;SDS011;44294;48.282;14.282;2022-12-18T04:13:09;46.03;;;19.13;;
28756;SDS011;44294;48.282;14.282;2022-12-18T04:15:56;43.43;;;17.97;;
28756;SDS011;44294;48.282;14.282;2022-12-18T04:18:43;42.90;;;18.43;;
28756;SDS011;44294;48.282;14.282;2022-12-18T04:21:31;46.90;;;18.80;;
28756;SDS011;44294;48.282;14.282;2022-12-18T04:24:18;47.33;;;18.27;;
28756;SDS011;44294;48.282;14.282;2022-12-18T04:27:05;51.80;;;20.50;;
28756;SDS011;44294;48.282;14.282;2022-12-18T04:29:53;50.40;;;19.67;;
28756;SDS011;44294;48.282;14.282;2022-12-18T04:32:40;49.50;;;19.87;;
28756;SDS011;44294;48.282;14.282;2022-12-18T04:35:28;49.67;;;19.70;;
28756;SDS011;44294;48.282;14.282;2022-12-18T04:38:15;49.43;;;20.07;;
28756;SDS011;44294;48.282;14.282;2022-12-18T04:41:02;47.57;;;19.63;;
28756;SDS011;44294;48.282;14.282;2022-12-18T04:43:50;45.87;;;19.17;;
28756;SDS011;44294;48.282;14.282;2022-12-18T04:46:37;43.60;;;18.37;;
28756;SDS011;44294;48.282;14.282;2022-12-18T04:49:24;44.97;;;19.00;;
28756;SDS011;44294;48.282;14.282;2022-12-18T04:52:12;39.67;;;17.77;;
28756;SDS011;44294;48.282;14.282;2022-12-18T04:54:59;43.20;;;17.60;;
28756;SDS011;44294;48.282;14.282;2022-12-18T04:57:46;45.43;;;17.97;;
28756;SDS011;44294;48.282;14.282;2022-12-18T05:00:34;42.17;;;17.93;;
28756;SDS011;44294;48.282;14.282;2022-12-18T05:03:21;43.57;;;18.50;;
28756;SDS011;44294;48.282;14.282;2022-12-18T05:06:08;40.90;;;17.63;;
28756;SDS011;44294;48.282;14.282;2022-12-18T05:08:56;40.53;;;17.20;;
28756;SDS011;44294;48.282;14.282;2022-12-18T05:11:43;42.23;;;17.33;;
28756;SDS011;44294;48.282;14.282;2022-12-18T05:14:30;40.97;;;17.07;;
28756;SDS011;44294;48.282;14.282;2022-12-18T05:17:18;37.93;;;16.17;;
28756;SDS011;44294;48.282;14.282;2022-12-18T05:20:05;38.80;;;15.87;;
28756;SDS011;44294;48.282;14.282;2022-12-18T05:22:53;33.27;;;15.03;;
28756;SDS011;44294;48.282;14.282;2022-12-18T05:25:40;33.07;;;14.80;;
28756;SDS011;44294;48.282;14.282;2022-12-18T05:28:28;35.10;;;15.23;;
28756;SDS011;44294;48.282;14.282;2022-12-18T05:31:16;32.07;;;14.27;;
28756;SDS011;44294;48.282;14.282;2022-12-18T05:34:04;34.73;;;14.50;;
28756;SDS011;44294;48.282;14.282;2022-12-18T05:36:51;32.60;;;14.53;;
28756;SDS011;44294;48.282;14.282;2022-12-18T05:39:38;29.43;;;13.47;;
28756;SDS011;44294;48.282;14.282;2022-12-18T05:42:26;32.13;;;14.33;;
28756;SDS011;44294;48.282;14.282;2022-12-18T05:45:13;31.20;;;14.20;;
28756;SDS011;44294;48.282;14.282;2022-12-18T05:48:00;33.33;;;14.20;;
28756;SDS011;44294;48.282;14.282;2022-12-18T05:50:48;36.13;;;15.03;;
28756;SDS011;44294;48.282;14.282;2022-12-18T05:53:36;34.37;;;14.40;;
28756;SDS011;44294;48.282;14.282;2022-12-18T05:56:23;31.83;;;14.07;;
28756;SDS011;44294;48.282;14.282;2022-12-18T05:59:11;33.00;;;14.40;;
28756;SDS011;44294;48.282;14.282;2022-12-18T06:01:58;33.93;;;14.20;;
28756;SDS011;44294;48.282;14.282;2022-12-18T06:04:45;34.07;;;14.37;;
28756;SDS011;44294;48.282;14.282;2022-12-18T06:07:33;31.30;;;14.00;;
28756;SDS011;44294;48.282;14.282;2022-12-18T06:10:20;33.17;;;14.10;;
28756;SDS011;44294;48.282;14.282;2022-12-18T06:13:08;32.23;;;14.27;;
28756;SDS011;44294;48.282;14.282;2022-12-18T06:15:55;31.30;;;14.10;;
28756;SDS011;44294;48.282;14.282;2022-12-18T06:18:42;34.13;;;14.37;;
28756;SDS011;44294;48.282;14.282;2022-12-18T06:21:30;35.67;;;14.43;;
28756;SDS011;44294;48.282;14.282;2022-12-18T06:24:17;33.40;;;15.03;;
28756;SDS011;44294;48.282;14.282;2022-12-18T06:27:04;35.43;;;14.83;;
28756;SDS011;44294;48.282;14.282;2022-12-18T06:29:52;34.80;;;15.03;;
28756;SDS011;44294;48.282;14.282;2022-12-18T06:32:39;31.23;;;14.17;;
28756;SDS011;44294;48.282;14.282;2022-12-18T06:35:26;34.47;;;13.97;;
28756;SDS011;44294;48.282;14.282;2022-12-18T06:38:14;32.17;;;14.30;;
28756;SDS011;44294;48.282;14.282;2022-12-18T06:41:05;34.43;;;14.53;;
28756;SDS011;44294;48.282;14.282;2022-12-18T06:43:50;32.90;;;14.97;;
28756;SDS011;44294;48.282;14.282;2022-12-18T06:46:37;31.47;;;14.17;;
28756;SDS011;44294;48.282;14.282;2022-12-18T06:49:24;26.40;;;12.03;;
28756;SDS011;44294;48.282;14.282;2022-12-18T06:52:12;24.50;;;11.37;;
28756;SDS011;44294;48.282;14.282;2022-12-18T06:55:03;22.50;;;10.37;;
28756;SDS011;44294;48.282;14.282;2022-12-18T06:57:50;24.43;;;10.70;;
28756;SDS011;44294;48.282;14.282;2022-12-18T07:00:37;22.20;;;10.93;;
28756;SDS011;44294;48.282;14.282;2022-12-18T07:03:25;23.53;;;10.40;;
28756;SDS011;44294;48.282;14.282;2022-12-18T07:06:18;21.17;;;9.70;;
28756;SDS011;44294;48.282;14.282;2022-12-18T07:09:01;20.47;;;10.03;;
28756;SDS011;44294;48.282;14.282;2022-12-18T07:11:49;21.23;;;10.27;;
28756;SDS011;44294;48.282;14.282;2022-12-18T07:14:36;21.37;;;9.77;;
28756;SDS011;44294;48.282;14.282;2022-12-18T07:17:23;20.70;;;10.00;;
28756;SDS011;44294;48.282;14.282;2022-12-18T07:20:11;24.77;;;10.67;;
28756;SDS011;44294;48.282;14.282;2022-12-18T07:22:58;22.80;;;10.53;;
28756;SDS011;44294;48.282;14.282;2022-12-18T07:25:45;22.30;;;10.10;;
28756;SDS011;44294;48.282;14.282;2022-12-18T07:28:33;23.87;;;9.90;;
28756;SDS011;44294;48.282;14.282;2022-12-18T07:31:21;23.57;;;9.53;;
28756;SDS011;44294;48.282;14.282;2022-12-18T07:34:11;20.47;;;9.90;;
28756;SDS011;44294;48.282;14.282;2022-12-18T07:36:59;23.57;;;10.33;;
28756;SDS011;44294;48.282;14.282;2022-12-18T07:39:46;21.90;;;10.23;;
28756;SDS011;44294;48.282;14.282;2022-12-18T07:42:34;22.60;;;10.70;;
28756;SDS011;44294;48.282;14.282;2022-12-18T07:45:22;22.63;;;10.33;;
28756;SDS011;44294;48.282;14.282;2022-12-18T07:48:09;26.83;;;10.80;;
28756;SDS011;44294;48.282;14.282;2022-12-18T07:51:00;26.33;;;10.90;;
28756;SDS011;44294;48.282;14.282;2022-12-18T07:53:49;24.20;;;11.07;;
28756;SDS011;44294;48.282;14.282;2022-12-18T07:56:36;23.37;;;10.70;;
28756;SDS011;44294;48.282;14.282;2022-12-18T07:59:23;23.77;;;11.10;;
28756;SDS011;44294;48.282;14.282;2022-12-18T08:02:10;24.53;;;11.23;;
28756;SDS011;44294;48.282;14.282;2022-12-18T08:04:58;30.87;;;12.33;;
28756;SDS011;44294;48.282;14.282;2022-12-18T08:07:45;30.00;;;13.23;;
28756;SDS011;44294;48.282;14.282;2022-12-18T08:10:33;29.50;;;13.53;;
28756;SDS011;44294;48.282;14.282;2022-12-18T08:13:20;28.60;;;12.57;;
28756;SDS011;44294;48.282;14.282;2022-12-18T08:16:07;32.27;;;15.00;;
28756;SDS011;44294;48.282;14.282;2022-12-18T08:18:55;31.03;;;14.10;;
28756;SDS011;44294;48.282;14.282;2022-12-18T08:21:42;31.27;;;13.60;;
28756;SDS011;44294;48.282;14.282;2022-12-18T08:24:30;30.17;;;13.20;;
28756;SDS011;44294;48.282;14.282;2022-12-18T08:27:17;31.10;;;13.57;;
28756;SDS011;44294;48.282;14.282;2022-12-18T08:30:05;27.47;;;12.80;;
28756;SDS011;44294;48.282;14.282;2022-12-18T08:32:52;30.10;;;13.97;;
28756;SDS011;44294;48.282;14.282;2022-12-18T08:35:40;25.50;;;12.10;;
28756;SDS011;44294;48.282;14.282;2022-12-18T08:38:27;27.57;;;12.00;;
28756;SDS011;44294;48.282;14.282;2022-12-18T08:41:15;25.40;;;11.70;;
28756;SDS011;44294;48.282;14.282;2022-12-18T08:44:03;28.53;;;11.90;;
28756;SDS011;44294;48.282;14.282;2022-12-18T08:47:08;25.97;;;11.93;;
28756;SDS011;44294;48.282;14.282;2022-12-18T08:49:56;24.10;;;11.57;;
28756;SDS011;44294;48.282;14.282;2022-12-18T08:52:43;28.10;;;12.60;;
28756;SDS011;44294;48.282;14.282;2022-12-18T08:55:30;32.40;;;14.00;;
28756;SDS011;44294;48.282;14.282;2022-12-18T08:58:18;28.03;;;12.70;;
28756;SDS011;44294;48.282;14.282;2022-12-18T09:01:07;29.43;;;12.97;;
28756;SDS011;44294;48.282;14.282;2022-12-18T09:03:56;26.43;;;12.73;;
28756;SDS011;44294;48.282;14.282;2022-12-18T09:06:43;29.73;;;12.80;;
28756;SDS011;44294;48.282;14.282;2022-12-18T09:09:31;28.10;;;12.83;;
28756;SDS011;44294;48.282;14.282;2022-12-18T09:12:19;29.13;;;13.00;;
28756;SDS011;44294;48.282;14.282;2022-12-18T09:15:06;29.37;;;13.40;;
28756;SDS011;44294;48.282;14.282;2022-12-18T09:17:54;31.73;;;12.80;;
28756;SDS011;44294;48.282;14.282;2022-12-18T09:20:41;30.77;;;13.33;;
28756;SDS011;44294;48.282;14.282;2022-12-18T09:23:28;30.70;;;14.00;;
28756;SDS011;44294;48.282;14.282;2022-12-18T09:26:16;32.80;;;14.53;;
28756;SDS011;44294;48.282;14.282;2022-12-18T09:29:03;32.70;;;14.20;;
28756;SDS011;44294;48.282;14.282;2022-12-18T09:31:51;32.20;;;14.10;;
28756;SDS011;44294;48.282;14.282;2022-12-18T09:34:38;34.07;;;13.90;;
28756;SDS011;44294;48.282;14.282;2022-12-18T09:37:26;32.10;;;13.60;;
28756;SDS011;44294;48.282;14.282;2022-12-18T09:40:17;36.33;;;13.73;;
28756;SDS011;44294;48.282;14.282;2022-12-18T09:43:05;35.50;;;13.90;;
28756;SDS011;44294;48.282;14.282;2022-12-18T09:45:55;33.00;;;14.27;;
28756;SDS011;44294;48.282;14.282;2022-12-18T09:48:44;34.17;;;14.13;;
28756;SDS011;44294;48.282;14.282;2022-12-18T09:54:32;27.83;;;12.30;;
28756;SDS011;44294;48.282;14.282;2022-12-18T09:57:15;26.27;;;11.90;;
28756;SDS011;44294;48.282;14.282;2022-12-18T10:00:09;31.40;;;13.73;;
28756;SDS011;44294;48.282;14.282;2022-12-18T10:02:55;28.07;;;12.30;;
28756;SDS011;44294;48.282;14.282;2022-12-18T10:15:08;26.77;;;12.37;;
28756;SDS011;44294;48.282;14.282;2022-12-18T10:21:02;28.83;;;12.37;;
28756;SDS011;44294;48.282;14.282;2022-12-18T10:26:52;21.13;;;10.70;;
28756;SDS011;44294;48.282;14.282;2022-12-18T10:29:40;20.73;;;10.37;;
28756;SDS011;44294;48.282;14.282;2022-12-18T10:32:28;20.30;;;10.77;;
28756;SDS011;44294;48.282;14.282;2022-12-18T10:35:22;22.07;;;10.33;;
28756;SDS011;44294;48.282;14.282;2022-12-18T10:38:07;22.63;;;10.07;;
28756;SDS011;44294;48.282;14.282;2022-12-18T10:40:56;20.10;;;9.80;;
28756;SDS011;44294;48.282;14.282;2022-12-18T10:43:43;22.63;;;10.57;;
28756;SDS011;44294;48.282;14.282;2022-12-18T10:46:31;21.43;;;9.73;;
28756;SDS011;44294;48.282;14.282;2022-12-18T10:49:25;20.13;;;9.97;;
28756;SDS011;44294;48.282;14.282;2022-12-18T10:52:13;19.10;;;9.50;;
28756;SDS011;44294;48.282;14.282;2022-12-18T10:55:04;20.67;;;9.17;;
28756;SDS011;44294;48.282;14.282;2022-12-18T10:57:49;18.70;;;9.47;;
28756;SDS011;44294;48.282;14.282;2022-12-18T11:00:36;22.47;;;9.90;;
28756;SDS011;44294;48.282;14.282;2022-12-18T11:03:43;21.77;;;10.53;;
28756;SDS011;44294;48.282;14.282;2022-12-18T11:06:30;23.23;;;11.13;;
28756;SDS011;44294;48.282;14.282;2022-12-18T11:09:22;22.50;;;10.80;;
28756;SDS011;44294;48.282;14.282;2022-12-18T11:15:01;21.30;;;10.07;;
28756;SDS011;44294;48.282;14.282;2022-12-18T11:17:49;24.47;;;11.07;;
28756;SDS011;44294;48.282;14.282;2022-12-18T11:20:38;18.80;;;10.23;;
28756;SDS011;44294;48.282;14.282;2022-12-18T11:23:26;18.57;;;10.10;;
28756;SDS011;44294;48.282;14.282;2022-12-18T11:26:14;22.73;;;11.10;;
28756;SDS011;44294;48.282;14.282;2022-12-18T11:29:08;22.50;;;10.90;;
28756;SDS011;44294;48.282;14.282;2022-12-18T11:38:17;20.53;;;10.90;;
28756;SDS011;44294;48.282;14.282;2022-12-18T11:41:02;20.50;;;11.30;;
28756;SDS011;44294;48.282;14.282;2022-12-18T11:44:01;21.07;;;11.23;;
28756;SDS011;44294;48.282;14.282;2022-12-18T11:46:51;22.10;;;11.30;;
28756;SDS011;44294;48.282;14.282;2022-12-18T11:49:38;28.83;;;14.00;;
28756;SDS011;44294;48.282;14.282;2022-12-18T11:52:30;26.20;;;13.20;;
28756;SDS011;44294;48.282;14.282;2022-12-18T11:55:22;53.33;;;28.97;;
28756;SDS011;44294;48.282;14.282;2022-12-18T11:58:12;43.00;;;20.37;;
28756;SDS011;44294;48.282;14.282;2022-12-18T12:07:04;31.43;;;15.50;;
28756;SDS011;44294;48.282;14.282;2022-12-18T12:10:06;33.53;;;17.10;;
28756;SDS011;44294;48.282;14.282;2022-12-18T12:12:58;36.40;;;18.17;;
28756;SDS011;44294;48.282;14.282;2022-12-18T12:16:04;35.67;;;17.53;;
28756;SDS011;44294;48.282;14.282;2022-12-18T12:21:51;36.70;;;18.33;;
28756;SDS011;44294;48.282;14.282;2022-12-18T12:24:53;39.00;;;18.70;;
28756;SDS011;44294;48.282;14.282;2022-12-18T12:33:27;34.23;;;17.13;;
28756;SDS011;44294;48.282;14.282;2022-12-18T12:36:22;33.83;;;16.80;;
28756;SDS011;44294;48.282;14.282;2022-12-18T12:39:14;34.47;;;16.00;;
28756;SDS011;44294;48.282;14.282;2022-12-18T12:42:01;32.60;;;16.73;;
28756;SDS011;44294;48.282;14.282;2022-12-18T12:45:11;35.70;;;16.90;;
28756;SDS011;44294;48.282;14.282;2022-12-18T12:47:56;41.17;;;19.33;;
28756;SDS011;44294;48.282;14.282;2022-12-18T12:50:44;35.67;;;18.03;;
28756;SDS011;44294;48.282;14.282;2022-12-18T12:53:34;44.43;;;21.60;;
28756;SDS011;44294;48.282;14.282;2022-12-18T12:56:22;45.40;;;20.37;;
28756;SDS011;44294;48.282;14.282;2022-12-18T12:59:19;47.93;;;21.10;;
28756;SDS011;44294;48.282;14.282;2022-12-18T13:02:06;44.70;;;21.10;;
28756;SDS011;44294;48.282;14.282;2022-12-18T13:04:57;41.40;;;19.37;;
28756;SDS011;44294;48.282;14.282;2022-12-18T13:07:46;39.40;;;19.63;;
28756;SDS011;44294;48.282;14.282;2022-12-18T13:10:32;37.63;;;18.80;;
28756;SDS011;44294;48.282;14.282;2022-12-18T13:13:19;34.73;;;17.77;;
28756;SDS011;44294;48.282;14.282;2022-12-18T13:16:07;35.23;;;17.17;;
28756;SDS011;44294;48.282;14.282;2022-12-18T13:18:57;42.83;;;21.03;;
28756;SDS011;44294;48.282;14.282;2022-12-18T13:21:45;38.60;;;19.03;;
28756;SDS011;44294;48.282;14.282;2022-12-18T13:24:34;40.80;;;19.13;;
28756;SDS011;44294;48.282;14.282;2022-12-18T13:33:34;41.97;;;20.30;;
28756;SDS011;44294;48.282;14.282;2022-12-18T13:44:55;43.50;;;19.17;;
28756;SDS011;44294;48.282;14.282;2022-12-18T13:47:42;40.10;;;19.17;;
28756;SDS011;44294;48.282;14.282;2022-12-18T13:50:30;39.57;;;19.40;;
28756;SDS011;44294;48.282;14.282;2022-12-18T13:53:23;39.73;;;19.97;;
28756;SDS011;44294;48.282;14.282;2022-12-18T13:56:07;40.40;;;19.97;;
28756;SDS011;44294;48.282;14.282;2022-12-18T14:02:00;40.27;;;19.73;;
28756;SDS011;44294;48.282;14.282;2022-12-18T14:04:48;37.93;;;19.03;;
28756;SDS011;44294;48.282;14.282;2022-12-18T14:07:35;44.07;;;20.13;;
28756;SDS011;44294;48.282;14.282;2022-12-18T14:10:23;43.43;;;20.37;;
28756;SDS011;44294;48.282;14.282;2022-12-18T14:13:11;44.73;;;21.67;;
28756;SDS011;44294;48.282;14.282;2022-12-18T14:16:00;45.30;;;21.87;;
28756;SDS011;44294;48.282;14.282;2022-12-18T14:18:50;51.60;;;23.37;;
28756;SDS011;44294;48.282;14.282;2022-12-18T14:21:36;44.17;;;20.73;;
28756;SDS011;44294;48.282;14.282;2022-12-18T14:24:24;44.83;;;21.23;;
28756;SDS011;44294;48.282;14.282;2022-12-18T14:27:22;43.73;;;20.53;;
28756;SDS011;44294;48.282;14.282;2022-12-18T14:30:25;43.90;;;20.87;;
28756;SDS011;44294;48.282;14.282;2022-12-18T14:33:16;40.73;;;18.83;;
28756;SDS011;44294;48.282;14.282;2022-12-18T14:36:13;43.43;;;19.43;;
28756;SDS011;44294;48.282;14.282;2022-12-18T14:38:56;37.97;;;17.47;;
28756;SDS011;44294;48.282;14.282;2022-12-18T14:41:44;42.43;;;19.30;;
28756;SDS011;44294;48.282;14.282;2022-12-18T14:44:31;39.00;;;17.40;;
28756;SDS011;44294;48.282;14.282;2022-12-18T14:47:24;38.13;;;17.17;;
28756;SDS011;44294;48.282;14.282;2022-12-18T14:50:12;36.90;;;17.87;;
28756;SDS011;44294;48.282;14.282;2022-12-18T14:52:56;36.53;;;17.10;;
28756;SDS011;44294;48.282;14.282;2022-12-18T14:55:45;36.07;;;17.50;;
28756;SDS011;44294;48.282;14.282;2022-12-18T14:58:32;37.53;;;17.37;;
28756;SDS011;44294;48.282;14.282;2022-12-18T15:01:44;36.73;;;17.20;;
28756;SDS011;44294;48.282;14.282;2022-12-18T15:04:29;34.77;;;16.77;;
28756;SDS011;44294;48.282;14.282;2022-12-18T15:07:18;36.00;;;17.13;;
28756;SDS011;44294;48.282;14.282;2022-12-18T15:10:10;40.33;;;17.20;;
28756;SDS011;44294;48.282;14.282;2022-12-18T15:15:48;44.87;;;19.77;;
28756;SDS011;44294;48.282;14.282;2022-12-18T15:18:38;46.47;;;20.20;;
28756;SDS011;44294;48.282;14.282;2022-12-18T15:21:25;36.57;;;16.87;;
28756;SDS011;44294;48.282;14.282;2022-12-18T15:24:17;38.37;;;17.70;;
28756;SDS011;44294;48.282;14.282;2022-12-18T15:27:17;39.30;;;17.80;;
28756;SDS011;44294;48.282;14.282;2022-12-18T15:33:22;43.13;;;19.27;;
28756;SDS011;44294;48.282;14.282;2022-12-18T15:36:11;38.97;;;18.30;;
28756;SDS011;44294;48.282;14.282;2022-12-18T15:38:55;40.67;;;18.23;;
28756;SDS011;44294;48.282;14.282;2022-12-18T15:41:43;43.37;;;19.07;;
28756;SDS011;44294;48.282;14.282;2022-12-18T15:44:32;41.10;;;18.60;;
28756;SDS011;44294;48.282;14.282;2022-12-18T15:47:20;38.93;;;17.67;;
28756;SDS011;44294;48.282;14.282;2022-12-18T15:50:09;36.23;;;17.20;;
28756;SDS011;44294;48.282;14.282;2022-12-18T15:52:57;39.63;;;18.97;;
28756;SDS011;44294;48.282;14.282;2022-12-18T15:55:44;37.10;;;17.57;;
28756;SDS011;44294;48.282;14.282;2022-12-18T15:58:49;50.77;;;23.33;;
28756;SDS011;44294;48.282;14.282;2022-12-18T16:01:36;52.47;;;23.37;;
28756;SDS011;44294;48.282;14.282;2022-12-18T16:04:24;45.03;;;19.63;;
28756;SDS011;44294;48.282;14.282;2022-12-18T16:07:12;39.67;;;18.53;;
28756;SDS011;44294;48.282;14.282;2022-12-18T16:09:59;42.53;;;18.60;;
28756;SDS011;44294;48.282;14.282;2022-12-18T16:12:46;40.23;;;18.07;;
28756;SDS011;44294;48.282;14.282;2022-12-18T16:15:34;41.77;;;19.07;;
28756;SDS011;44294;48.282;14.282;2022-12-18T16:18:21;42.27;;;19.57;;
28756;SDS011;44294;48.282;14.282;2022-12-18T16:21:08;44.40;;;19.80;;
28756;SDS011;44294;48.282;14.282;2022-12-18T16:23:56;43.53;;;18.70;;
28756;SDS011;44294;48.282;14.282;2022-12-18T16:26:43;47.40;;;20.20;;
28756;SDS011;44294;48.282;14.282;2022-12-18T16:29:30;46.03;;;19.97;;
28756;SDS011;44294;48.282;14.282;2022-12-18T16:32:19;43.70;;;19.67;;
28756;SDS011;44294;48.282;14.282;2022-12-18T16:35:08;45.87;;;19.90;;
28756;SDS011;44294;48.282;14.282;2022-12-18T16:37:56;42.50;;;19.33;;
28756;SDS011;44294;48.282;14.282;2022-12-18T16:40:43;47.40;;;20.17;;
28756;SDS011;44294;48.282;14.282;2022-12-18T16:43:49;77.33;;;32.83;;
28756;SDS011;44294;48.282;14.282;2022-12-18T16:46:36;46.80;;;20.63;;
28756;SDS011;44294;48.282;14.282;2022-12-18T16:49:24;48.07;;;21.43;;
28756;SDS011;44294;48.282;14.282;2022-12-18T16:52:11;48.47;;;21.27;;
28756;SDS011;44294;48.282;14.282;2022-12-18T16:54:58;44.30;;;19.63;;
28756;SDS011;44294;48.282;14.282;2022-12-18T16:57:46;40.07;;;18.43;;
28756;SDS011;44294;48.282;14.282;2022-12-18T17:00:33;41.97;;;18.87;;
28756;SDS011;44294;48.282;14.282;2022-12-18T17:03:20;45.03;;;19.13;;
28756;SDS011;44294;48.282;14.282;2022-12-18T17:06:08;42.77;;;19.00;;
28756;SDS011;44294;48.282;14.282;2022-12-18T17:08:55;41.73;;;18.97;;
28756;SDS011;44294;48.282;14.282;2022-12-18T17:11:45;43.17;;;18.83;;
28756;SDS011;44294;48.282;14.282;2022-12-18T17:14:32;43.53;;;19.37;;
28756;SDS011;44294;48.282;14.282;2022-12-18T17:17:20;40.50;;;18.50;;
28756;SDS011;44294;48.282;14.282;2022-12-18T17:20:07;43.00;;;18.93;;
28756;SDS011;44294;48.282;14.282;2022-12-18T17:22:55;45.73;;;19.03;;